createdAt,value
2022-12-09T00:01:27.965Z,97342.72
2022-12-09T00:03:56.160Z,97340.13
2022-12-09T00:06:25.564Z,97329.81
2022-12-09T00:08:52.944Z,97335.44
2022-12-09T00:11:20.855Z,97334.47
2022-12-09T00:13:52.815Z,97323.13
2022-12-09T00:16:19.815Z,97321.22
2022-12-09T00:18:46.583Z,97317.81
2022-12-09T00:21:18.984Z,97316.88
2022-12-09T00:23:45.826Z,97313.16
2022-12-09T00:26:13.135Z,97316.13
2022-12-09T00:28:40.510Z,97316.19
2022-12-09T00:31:08.039Z,97312.44
2022-12-09T00:33:35.256Z,97311.72
2022-12-09T00:36:10.685Z,97310.81
2022-12-09T00:38:37.893Z,97306.28
2022-12-09T00:41:05.602Z,97308.53
2022-12-09T00:43:33.115Z,97304.00
2022-12-09T00:46:00.603Z,97298.75
2022-12-09T00:48:28.248Z,97298.63
2022-12-09T00:50:55.424Z,97297.84
2022-12-09T00:53:22.076Z,97306.94
2022-12-09T00:55:49.088Z,97308.03
2022-12-09T00:58:16.093Z,97305.25
2022-12-09T01:00:43.013Z,97305.63
2022-12-09T01:03:17.597Z,97307.19
2022-12-09T01:05:44.911Z,97310.06
2022-12-09T01:08:12.575Z,97309.53
2022-12-09T01:10:41.497Z,97302.72
2022-12-09T01:13:08.655Z,97307.34
2022-12-09T01:15:36.144Z,97321.03
2022-12-09T01:18:03.330Z,97322.41
2022-12-09T01:20:30.007Z,97320.69
2022-12-09T01:22:56.686Z,97314.41
2022-12-09T01:25:23.277Z,97312.56
2022-12-09T01:27:50.224Z,97314.66
2022-12-09T01:30:17.248Z,97316.06
2022-12-09T01:32:44.240Z,97307.13
2022-12-09T01:35:11.174Z,97300.81
2022-12-09T01:37:38.401Z,97299.81
2022-12-09T01:40:08.374Z,97303.75
2022-12-09T01:42:35.552Z,97296.28
2022-12-09T01:45:20.715Z,97297.41
2022-12-09T01:47:49.245Z,97299.53
2022-12-09T01:50:16.926Z,97303.41
2022-12-09T01:52:44.717Z,97292.25
2022-12-09T01:55:12.219Z,97288.75
2022-12-09T01:57:39.698Z,97286.44
2022-12-09T02:00:07.892Z,97287.22
2022-12-09T02:02:38.336Z,97288.81
2022-12-09T02:05:06.641Z,97286.09
2022-12-09T02:07:33.900Z,97287.44
2022-12-09T02:10:02.447Z,97282.53
2022-12-09T02:12:41.185Z,97279.97
2022-12-09T02:17:55.524Z,97262.41
2022-12-09T02:20:24.858Z,97257.88
2022-12-09T02:23:07.590Z,97244.06
2022-12-09T02:25:49.642Z,97244.22
2022-12-09T02:28:34.857Z,97240.25
2022-12-09T02:31:25.754Z,97242.13
2022-12-09T02:33:58.620Z,97245.06
2022-12-09T02:36:30.040Z,97237.00
2022-12-09T02:38:58.532Z,97246.72
2022-12-09T02:41:30.692Z,97248.31
2022-12-09T02:44:03.116Z,97248.44
2022-12-09T02:46:31.761Z,97247.78
2022-12-09T02:48:59.731Z,97242.34
2022-12-09T02:51:30.046Z,97236.94
2022-12-09T02:54:04.150Z,97228.72
2022-12-09T02:56:32.447Z,97236.22
2022-12-09T02:58:59.173Z,97238.06
2022-12-09T03:01:40.266Z,97231.50
2022-12-09T03:04:09.109Z,97220.84
2022-12-09T03:06:46.852Z,97213.75
2022-12-09T03:09:26.796Z,97209.09
2022-12-09T03:11:58.421Z,97196.97
2022-12-09T03:14:36.116Z,97207.53
2022-12-09T03:17:13.134Z,97202.03
2022-12-09T03:19:40.205Z,97206.53
2022-12-09T03:22:13.060Z,97195.19
2022-12-09T03:24:46.083Z,97195.94
2022-12-09T03:27:18.767Z,97186.00
2022-12-09T03:29:48.323Z,97195.84
2022-12-09T03:32:17.992Z,97193.50
2022-12-09T03:34:47.849Z,97194.38
2022-12-09T03:37:17.404Z,97192.91
2022-12-09T03:39:45.702Z,97194.78
2022-12-09T03:42:33.495Z,97198.06
2022-12-09T03:45:06.121Z,97196.63
2022-12-09T03:47:33.422Z,97200.44
2022-12-09T03:50:00.515Z,97187.47
2022-12-09T03:52:34.422Z,97180.34
2022-12-09T03:55:27.225Z,97174.66
2022-12-09T03:57:58.181Z,97180.22
2022-12-09T04:00:25.144Z,97180.09
2022-12-09T04:02:52.540Z,97179.81
2022-12-09T04:05:19.722Z,97176.56
2022-12-09T04:07:46.703Z,97179.81
2022-12-09T04:10:13.859Z,97182.91
2022-12-09T04:12:40.523Z,97183.81
2022-12-09T04:15:07.801Z,97185.50
2022-12-09T04:22:38.114Z,97181.66
2022-12-09T04:25:05.268Z,97183.66
2022-12-09T04:27:32.032Z,97170.78
2022-12-09T04:29:58.949Z,97167.16
2022-12-09T04:32:26.068Z,97166.31
2022-12-09T04:34:52.705Z,97156.38
2022-12-09T04:37:19.650Z,97151.63
2022-12-09T04:39:46.277Z,97146.94
2022-12-09T04:42:13.007Z,97144.44
2022-12-09T04:47:11.263Z,97143.19
2022-12-09T04:49:38.273Z,97136.44
2022-12-09T04:52:05.410Z,97131.78
2022-12-09T04:59:38.386Z,97116.47
2022-12-09T05:02:05.165Z,97116.47
2022-12-09T05:04:32.040Z,97113.78
2022-12-09T05:06:58.908Z,97108.00
2022-12-09T05:09:25.875Z,97099.31
2022-12-09T05:11:53.689Z,97101.59
2022-12-09T05:14:20.941Z,97100.34
2022-12-09T05:16:47.685Z,97108.28
2022-12-09T05:19:14.593Z,97100.53
2022-12-09T05:21:44.103Z,97101.13
2022-12-09T05:24:11.254Z,97097.94
2022-12-09T05:26:38.470Z,97106.94
2022-12-09T05:29:05.936Z,97097.78
2022-12-09T05:31:33.421Z,97093.53
2022-12-09T05:34:00.646Z,97097.78
2022-12-09T05:38:59.200Z,97098.06
2022-12-09T05:41:26.222Z,97098.38
2022-12-09T05:43:53.336Z,97085.31
2022-12-09T05:46:20.689Z,97075.41
2022-12-09T05:48:47.649Z,97079.59
2022-12-09T05:51:32.922Z,97074.38
2022-12-09T05:54:04.988Z,97068.22
2022-12-09T05:56:33.528Z,97071.97
2022-12-09T05:59:00.820Z,97079.38
2022-12-09T06:01:27.939Z,97072.44
2022-12-09T06:03:55.429Z,97070.50
2022-12-09T06:06:27.018Z,97064.69
2022-12-09T06:08:59.875Z,97068.09
2022-12-09T06:11:27.906Z,97063.47
2022-12-09T06:13:55.464Z,97065.91
2022-12-09T06:16:23.394Z,97056.97
2022-12-09T06:18:51.566Z,97052.53
2022-12-09T06:21:20.013Z,97060.84
2022-12-09T06:23:47.630Z,97050.63
2022-12-09T06:26:22.291Z,97050.44
2022-12-09T06:28:49.539Z,97049.00
2022-12-09T06:33:57.542Z,97056.03
2022-12-09T06:36:27.842Z,97048.66
2022-12-09T06:41:26.389Z,97043.19
2022-12-09T06:43:53.862Z,97051.94
2022-12-09T06:46:26.030Z,97055.06
2022-12-09T06:48:54.818Z,97046.34
2022-12-09T06:51:23.037Z,97049.00
2022-12-09T06:53:50.119Z,97058.81
2022-12-09T06:56:17.704Z,97063.34
2022-12-09T06:58:46.113Z,97046.97
2022-12-09T07:01:18.525Z,97054.69
2022-12-09T07:03:50.752Z,97052.31
2022-12-09T07:06:29.923Z,97048.47
2022-12-09T07:08:59.076Z,97053.56
2022-12-09T07:13:57.750Z,97053.56
2022-12-09T07:16:25.229Z,97055.22
2022-12-09T07:18:52.783Z,97059.28
2022-12-09T07:21:22.772Z,97053.78
2022-12-09T07:23:50.069Z,97049.88
2022-12-09T07:26:18.579Z,97044.69
2022-12-09T07:28:47.449Z,97049.44
2022-12-09T07:31:25.479Z,97046.19
2022-12-09T07:33:54.386Z,97039.28
2022-12-09T07:36:22.774Z,97040.06
2022-12-09T07:39:05.474Z,97040.38
2022-12-09T07:41:32.557Z,97041.88
2022-12-09T07:43:59.809Z,97039.50
2022-12-09T07:46:27.869Z,97039.66
2022-12-09T07:48:56.465Z,97032.97
2022-12-09T07:51:25.161Z,97035.72
2022-12-09T07:53:52.562Z,97044.63
2022-12-09T07:56:19.742Z,97038.16
2022-12-09T07:58:48.120Z,97035.81
2022-12-09T08:01:18.822Z,97042.00
2022-12-09T08:03:47.374Z,97030.59
2022-12-09T08:06:17.180Z,97036.69
2022-12-09T08:08:44.659Z,97040.50
2022-12-09T08:11:16.234Z,97039.19
2022-12-09T08:13:43.268Z,97040.50
2022-12-09T08:16:12.401Z,97038.50
2022-12-09T08:18:40.250Z,97030.66
2022-12-09T08:23:48.705Z,97033.13
2022-12-09T08:26:17.743Z,97037.75
2022-12-09T08:28:44.661Z,97023.44
2022-12-09T08:31:14.625Z,97025.06
2022-12-09T08:33:41.871Z,97023.50
2022-12-09T08:36:21.019Z,97020.00
2022-12-09T08:38:48.139Z,97024.41
2022-12-09T08:41:21.527Z,97015.03
2022-12-09T08:43:49.226Z,97015.19
2022-12-09T08:46:16.444Z,97014.72
2022-12-09T08:48:43.748Z,97013.69
2022-12-09T08:51:12.231Z,97004.78
2022-12-09T08:53:39.939Z,97007.16
2022-12-09T08:56:14.815Z,97000.53
2022-12-09T08:58:43.213Z,97008.28
2022-12-09T09:01:26.828Z,97001.78
2022-12-09T09:03:54.026Z,97000.91
2022-12-09T09:06:21.479Z,97000.91
2022-12-09T09:08:49.041Z,96998.88
2022-12-09T09:11:19.713Z,97003.69
2022-12-09T09:13:48.940Z,96999.66
2022-12-09T09:16:19.244Z,96998.06
2022-12-09T09:18:46.756Z,96998.53
2022-12-09T09:21:16.092Z,96985.78
2022-12-09T09:23:43.989Z,96989.13
2022-12-09T09:26:13.255Z,96991.47
2022-12-09T09:28:40.712Z,96998.75
2022-12-09T09:31:09.375Z,96995.16
2022-12-09T09:33:37.288Z,96990.03
2022-12-09T09:36:10.166Z,97004.38
2022-12-09T09:38:38.518Z,97003.13
2022-12-09T09:41:34.866Z,96992.72
2022-12-09T09:44:02.230Z,96984.06
2022-12-09T09:46:40.015Z,96990.44
2022-12-09T09:49:13.308Z,96986.22
2022-12-09T09:51:40.169Z,96980.16
2022-12-09T09:54:10.895Z,96982.16
2022-12-09T09:56:47.941Z,96978.31
2022-12-09T09:59:37.689Z,96968.50
2022-12-09T10:02:19.477Z,96966.03
2022-12-09T10:05:03.489Z,96969.16
2022-12-09T10:07:57.293Z,96974.13
2022-12-09T10:10:41.274Z,96966.25
2022-12-09T10:13:29.641Z,96968.25
2022-12-09T10:16:17.677Z,96962.97
2022-12-09T10:18:53.650Z,96957.47
2022-12-09T10:21:21.799Z,96951.50
2022-12-09T10:23:50.693Z,96945.56
2022-12-09T10:26:25.900Z,96946.22
2022-12-09T10:29:18.695Z,96942.03
2022-12-09T10:31:45.972Z,96955.88
2022-12-09T10:34:14.360Z,96952.75
2022-12-09T10:36:45.307Z,96956.91
2022-12-09T10:39:19.070Z,96955.88
2022-12-09T10:42:10.581Z,96954.72
2022-12-09T10:44:37.561Z,96946.16
2022-12-09T10:47:08.006Z,96956.75
2022-12-09T10:49:36.214Z,96939.78
2022-12-09T10:52:05.421Z,96930.66
2022-12-09T10:54:37.188Z,96928.75
2022-12-09T10:57:13.006Z,96921.38
2022-12-09T10:59:42.498Z,96911.97
2022-12-09T11:02:09.840Z,96913.88
2022-12-09T11:04:37.210Z,96914.16
2022-12-09T11:07:13.249Z,96920.09
2022-12-09T11:09:45.821Z,96922.47
2022-12-09T11:12:19.222Z,96920.31
2022-12-09T11:14:52.547Z,96914.44
2022-12-09T11:17:28.401Z,96916.66
2022-12-09T11:20:17.646Z,96912.75
2022-12-09T11:22:46.173Z,96908.06
2022-12-09T11:25:16.625Z,96914.31
2022-12-09T11:27:52.176Z,96915.44
2022-12-09T11:30:21.903Z,96909.09
2022-12-09T11:32:56.989Z,96905.72
2022-12-09T11:35:31.235Z,96899.63
2022-12-09T11:38:01.361Z,96892.94
2022-12-09T11:40:28.961Z,96892.19
2022-12-09T11:42:57.256Z,96891.06
2022-12-09T11:45:33.795Z,96884.91
2022-12-09T11:48:31.938Z,96880.81
2022-12-09T11:51:01.934Z,96876.56
2022-12-09T11:53:31.430Z,96869.44
2022-12-09T11:56:16.014Z,96867.44
2022-12-09T11:58:48.480Z,96873.25
2022-12-09T12:01:28.928Z,96868.38
2022-12-09T12:04:01.674Z,96877.50
2022-12-09T12:06:39.952Z,96872.47
2022-12-09T12:09:16.160Z,96868.06
2022-12-09T12:11:51.715Z,96875.25
2022-12-09T12:14:28.156Z,96870.03
2022-12-09T12:17:14.299Z,96870.81
2022-12-09T12:19:43.668Z,96862.16
2022-12-09T12:22:35.044Z,96861.44
2022-12-09T12:25:22.205Z,96856.00
2022-12-09T12:28:26.395Z,96849.22
2022-12-09T12:31:19.953Z,96837.28
2022-12-09T12:34:23.509Z,96850.41
2022-12-09T12:36:53.513Z,96844.00
2022-12-09T12:39:26.101Z,96846.13
2022-12-09T12:42:11.091Z,96843.88
2022-12-09T12:48:15.897Z,96856.84
2022-12-09T12:50:48.429Z,96847.53
2022-12-09T12:53:33.784Z,96848.41
2022-12-09T12:56:15.711Z,96843.69
2022-12-09T12:59:00.300Z,96850.56
2022-12-09T13:02:16.032Z,96859.34
2022-12-09T13:04:54.749Z,96865.25
2022-12-09T13:07:48.467Z,96854.41
2022-12-09T13:10:39.824Z,96860.47
2022-12-09T13:13:34.346Z,96860.19
2022-12-09T13:16:07.143Z,96867.41
2022-12-09T13:18:36.941Z,96861.41
2022-12-09T13:24:08.800Z,96865.22
2022-12-09T13:26:53.402Z,96869.22
2022-12-09T13:29:47.640Z,96873.50
2022-12-09T13:32:26.804Z,96876.66
2022-12-09T13:37:54.961Z,96871.25
2022-12-09T13:40:21.557Z,96872.81
2022-12-09T13:42:58.996Z,96880.63
2022-12-09T13:45:25.647Z,96876.66
2022-12-09T13:47:56.393Z,96878.28
2022-12-09T13:50:27.718Z,96874.94
2022-12-09T13:52:57.922Z,96874.94
2022-12-09T13:55:30.484Z,96869.88
2022-12-09T13:58:12.654Z,96869.59
2022-12-09T14:00:43.578Z,96870.50
2022-12-09T14:03:30.575Z,96878.47
2022-12-09T14:06:00.647Z,96881.81
2022-12-09T14:08:33.697Z,96877.13
2022-12-09T14:11:38.537Z,96881.28
2022-12-09T14:14:23.496Z,96882.28
2022-12-09T14:16:54.794Z,96877.72
2022-12-09T14:19:24.125Z,96877.72
2022-12-09T14:22:22.316Z,96877.47
2022-12-09T14:24:52.928Z,96877.31
2022-12-09T14:27:25.518Z,96883.81
2022-12-09T14:29:52.113Z,96882.03
2022-12-09T14:32:31.977Z,96880.97
2022-12-09T14:35:10.504Z,96879.84
2022-12-09T14:37:42.531Z,96891.41
2022-12-09T14:40:14.835Z,96887.94
2022-12-09T14:43:10.145Z,96889.06
2022-12-09T14:46:00.574Z,96892.88
2022-12-09T14:48:31.387Z,96894.78
2022-12-09T14:51:20.155Z,96895.78
2022-12-09T14:53:57.698Z,96897.34
2022-12-09T14:56:26.118Z,96911.22
2022-12-09T14:59:18.758Z,96910.44
2022-12-09T15:01:54.444Z,96909.91
2022-12-09T15:04:36.229Z,96913.06
2022-12-09T15:07:20.392Z,96919.47
2022-12-09T15:12:37.168Z,96924.44
2022-12-09T15:15:23.438Z,96922.97
2022-12-09T15:17:58.029Z,96912.00
2022-12-09T15:20:27.621Z,96913.84
2022-12-09T15:23:07.270Z,96922.88
2022-12-09T15:25:45.388Z,96926.63
2022-12-09T15:28:24.515Z,96928.00
2022-12-09T15:33:42.525Z,96931.66
2022-12-09T15:36:43.096Z,96934.78
2022-12-09T15:39:18.392Z,96928.50
2022-12-09T15:42:06.551Z,96928.22
2022-12-09T15:44:36.142Z,96926.16
2022-12-09T15:47:10.305Z,96929.03
2022-12-09T15:49:45.240Z,96928.16
2022-12-09T15:52:14.404Z,96934.19
2022-12-09T15:54:44.474Z,96938.59
2022-12-09T15:57:17.597Z,96949.84
2022-12-09T15:59:55.512Z,96947.47
2022-12-09T16:02:27.665Z,96950.16
2022-12-09T16:04:58.154Z,96949.72
2022-12-09T16:07:25.404Z,96957.28
2022-12-09T16:10:12.806Z,96957.53
2022-12-09T16:12:41.031Z,96956.31
2022-12-09T16:15:11.406Z,96946.00
2022-12-09T16:17:53.473Z,96950.59
2022-12-09T16:23:25.020Z,96940.41
2022-12-09T16:25:52.137Z,96952.94
2022-12-09T16:28:27.565Z,96947.81
2022-12-09T16:31:04.485Z,96950.53
2022-12-09T16:33:37.747Z,96949.22
2022-12-09T16:36:07.207Z,96955.53
2022-12-09T16:38:38.854Z,96950.59
2022-12-09T16:41:08.962Z,96953.31
2022-12-09T16:46:14.111Z,96959.97
2022-12-09T16:48:42.639Z,96959.72
2022-12-09T16:51:21.133Z,96972.25
2022-12-09T16:53:52.432Z,96954.84
2022-12-09T16:56:20.436Z,96965.28
2022-12-09T16:58:47.583Z,96961.72
2022-12-09T17:01:16.707Z,96960.69
2022-12-09T17:03:45.039Z,96967.22
2022-12-09T17:06:17.220Z,96962.22
2022-12-09T17:08:44.930Z,96956.59
2022-12-09T17:11:12.277Z,96969.72
2022-12-09T17:13:39.552Z,96967.88
2022-12-09T17:16:07.141Z,96968.59
2022-12-09T17:18:34.619Z,96972.69
2022-12-09T17:21:04.527Z,96969.53
2022-12-09T17:23:37.698Z,96963.81
2022-12-09T17:26:08.015Z,96968.31
2022-12-09T17:28:36.037Z,96968.50
2022-12-09T17:31:11.215Z,96970.84
2022-12-09T17:33:38.626Z,96978.31
2022-12-09T17:36:06.159Z,96978.50
2022-12-09T17:41:10.249Z,96977.69
2022-12-09T17:43:37.480Z,96980.06
2022-12-09T17:46:06.062Z,96987.34
2022-12-09T17:48:34.547Z,96985.13
2022-12-09T17:51:09.164Z,96983.25
2022-12-09T17:53:37.509Z,96985.53
2022-12-09T17:56:16.714Z,96981.84
2022-12-09T18:04:04.674Z,96991.28
2022-12-09T18:06:35.252Z,96987.00
2022-12-09T18:09:04.484Z,96988.66
2022-12-09T18:11:31.883Z,96992.75
2022-12-09T18:13:59.297Z,96999.69
2022-12-09T18:16:26.044Z,97000.84
2022-12-09T18:18:53.309Z,96991.34
2022-12-09T18:21:20.392Z,96988.13
2022-12-09T18:23:48.525Z,96994.69
2022-12-09T18:26:17.707Z,97002.84
2022-12-09T18:28:44.626Z,96999.44
2022-12-09T18:31:19.323Z,97000.41
2022-12-09T18:33:46.631Z,97014.22
2022-12-09T18:36:18.712Z,97011.81
2022-12-09T18:38:45.455Z,97002.59
2022-12-09T18:41:14.071Z,97016.75
2022-12-09T18:43:43.181Z,97018.06
2022-12-09T18:46:13.304Z,97025.28
2022-12-09T18:48:40.885Z,97020.69
2022-12-09T18:51:20.908Z,97021.78
2022-12-09T18:53:48.737Z,97010.75
2022-12-09T18:56:16.782Z,97023.19
2022-12-09T18:59:05.302Z,97023.19
2022-12-09T19:01:31.807Z,97017.53
2022-12-09T19:04:03.775Z,97019.09
2022-12-09T19:06:35.686Z,97014.41
2022-12-09T19:11:41.669Z,97016.75
2022-12-09T19:14:09.173Z,97024.31
2022-12-09T19:16:36.168Z,97023.13
2022-12-09T19:19:09.139Z,97024.31
2022-12-09T19:21:37.326Z,97025.63
2022-12-09T19:24:04.205Z,97018.56
2022-12-09T19:26:33.122Z,97016.25
2022-12-09T19:29:02.256Z,97024.41
2022-12-09T19:31:38.644Z,97026.91
2022-12-09T19:34:10.767Z,97026.16
2022-12-09T19:36:37.459Z,97022.50
2022-12-09T19:39:06.447Z,97033.25
2022-12-09T19:41:33.118Z,97035.16
2022-12-09T19:44:01.137Z,97030.56
2022-12-09T19:46:28.745Z,97030.94
2022-12-09T19:48:57.243Z,97033.00
2022-12-09T19:51:25.275Z,97035.47
2022-12-09T19:53:56.606Z,97040.84
2022-12-09T19:56:24.283Z,97044.56
2022-12-09T19:58:52.699Z,97046.22
2022-12-09T20:01:22.909Z,97052.50
2022-12-09T20:03:56.218Z,97058.31
2022-12-09T20:06:23.011Z,97057.69
2022-12-09T20:08:49.717Z,97060.22
2022-12-09T20:11:19.925Z,97055.88
2022-12-09T20:13:47.390Z,97063.28
2022-12-09T20:16:18.373Z,97059.19
2022-12-09T20:18:47.798Z,97065.72
2022-12-09T20:21:16.555Z,97065.63
2022-12-09T20:23:44.208Z,97059.66
2022-12-09T20:26:20.376Z,97063.56
2022-12-09T20:28:48.665Z,97059.81
2022-12-09T20:31:21.011Z,97060.75
2022-12-09T20:33:48.713Z,97059.19
2022-12-09T20:36:19.707Z,97060.91
2022-12-09T20:38:54.691Z,97065.66
2022-12-09T20:41:22.479Z,97060.25
2022-12-09T20:43:50.841Z,97069.00
2022-12-09T20:46:20.598Z,97065.53
2022-12-09T20:48:48.207Z,97072.16
2022-12-09T20:51:41.531Z,97071.47
2022-12-09T20:54:10.340Z,97068.25
2022-12-09T20:56:37.634Z,97069.09
2022-12-09T20:59:04.898Z,97066.25
2022-12-09T21:01:34.412Z,97072.00
2022-12-09T21:04:02.513Z,97074.59
2022-12-09T21:06:34.392Z,97070.75
2022-12-09T21:09:06.268Z,97066.56
2022-12-09T21:11:33.077Z,97078.56
2022-12-09T21:14:02.233Z,97066.66
2022-12-09T21:16:34.828Z,97066.03
2022-12-09T21:19:05.378Z,97068.97
2022-12-09T21:21:35.340Z,97074.47
2022-12-09T21:24:02.801Z,97073.59
2022-12-09T21:29:01.769Z,97063.00
2022-12-09T21:31:32.067Z,97063.28
2022-12-09T21:34:03.799Z,97059.28
2022-12-09T21:36:33.415Z,97069.28
2022-12-09T21:39:00.705Z,97073.25
2022-12-09T21:41:31.071Z,97061.88
2022-12-09T21:43:58.159Z,97059.44
2022-12-09T21:46:30.089Z,97059.78
2022-12-09T21:49:03.350Z,97065.53
2022-12-09T21:51:31.660Z,97073.63
2022-12-09T21:53:58.304Z,97086.97
2022-12-09T21:56:27.752Z,97077.09
2022-12-09T21:58:57.348Z,97077.38
2022-12-09T22:01:30.071Z,97093.91
2022-12-09T22:03:58.452Z,97088.38
2022-12-09T22:06:25.791Z,97078.56
2022-12-09T22:08:52.441Z,97088.75
2022-12-09T22:11:25.067Z,97087.06
2022-12-09T22:13:52.747Z,97095.78
2022-12-09T22:16:22.878Z,97095.91
2022-12-09T22:18:50.660Z,97108.13
2022-12-09T22:21:25.173Z,97098.53
2022-12-09T22:23:55.003Z,97101.06
2022-12-09T22:26:22.958Z,97099.03
2022-12-09T22:28:50.282Z,97105.53
2022-12-09T22:31:25.895Z,97105.31
2022-12-09T22:33:54.661Z,97108.47
2022-12-09T22:36:22.501Z,97110.53
2022-12-09T22:38:49.776Z,97103.19
2022-12-09T22:41:19.883Z,97102.91
2022-12-09T22:43:48.363Z,97105.53
2022-12-09T22:46:17.594Z,97104.59
2022-12-09T22:48:44.485Z,97111.25
2022-12-09T22:51:17.391Z,97110.84
2022-12-09T22:53:44.647Z,97116.66
2022-12-09T22:56:12.557Z,97108.84
2022-12-09T22:58:39.186Z,97117.72
2022-12-09T23:01:10.222Z,97118.25
2022-12-09T23:03:37.357Z,97107.72
2022-12-09T23:06:04.212Z,97114.41
2022-12-09T23:08:30.903Z,97120.50
2022-12-09T23:11:05.769Z,97119.06
2022-12-09T23:13:36.208Z,97110.69
2022-12-09T23:16:09.338Z,97111.16
2022-12-09T23:18:36.145Z,97111.31
2022-12-09T23:21:11.421Z,97118.84
2022-12-09T23:23:38.633Z,97116.44
2022-12-09T23:26:11.371Z,97116.97
2022-12-09T23:28:42.797Z,97119.63
2022-12-09T23:31:12.132Z,97117.28
2022-12-09T23:33:40.081Z,97117.84
2022-12-09T23:36:08.020Z,97110.72
2022-12-09T23:38:35.164Z,97117.72
2022-12-09T23:41:02.040Z,97120.16
2022-12-09T23:43:33.088Z,97111.69
2022-12-09T23:46:01.715Z,97108.50
2022-12-09T23:48:28.441Z,97103.63
2022-12-09T23:50:55.534Z,97110.31
2022-12-09T23:53:22.603Z,97117.91
2022-12-09T23:55:49.452Z,97116.34
2022-12-09T23:58:19.244Z,97118.66
